createdAt,value
2023-01-31T00:00:09.337Z,12.13
2023-01-31T00:02:37.641Z,4.65
2023-01-31T00:05:06.226Z,6.18
2023-01-31T00:07:34.917Z,13.60
2023-01-31T00:10:04.715Z,4.00
2023-01-31T00:12:32.991Z,7.90
2023-01-31T00:15:01.395Z,8.15
2023-01-31T00:17:29.985Z,9.63
2023-01-31T00:19:58.199Z,5.93
2023-01-31T00:22:26.333Z,9.95
2023-01-31T00:24:54.509Z,4.18
2023-01-31T00:27:24.062Z,8.60
2023-01-31T00:29:52.557Z,8.68
2023-01-31T00:32:20.808Z,8.68
2023-01-31T00:34:48.901Z,11.15
2023-01-31T00:37:17.554Z,5.10
2023-01-31T00:39:45.722Z,4.22
2023-01-31T00:42:13.784Z,8.23
2023-01-31T00:44:43.339Z,5.68
2023-01-31T00:47:11.441Z,4.68
2023-01-31T00:49:39.615Z,10.82
2023-01-31T00:52:07.717Z,9.60
2023-01-31T00:54:35.783Z,8.60
2023-01-31T00:57:03.907Z,7.93
2023-01-31T00:59:32.060Z,9.45
2023-01-31T01:02:01.638Z,6.63
2023-01-31T01:04:29.834Z,8.95
2023-01-31T01:06:58.080Z,7.22
2023-01-31T01:09:26.903Z,6.53
2023-01-31T01:11:55.399Z,8.95
2023-01-31T01:14:23.529Z,5.13
2023-01-31T01:16:51.784Z,6.80
2023-01-31T01:19:21.821Z,3.85
2023-01-31T01:21:50.031Z,9.18
2023-01-31T01:24:20.129Z,7.45
2023-01-31T01:26:48.739Z,11.52
2023-01-31T01:29:16.910Z,5.05
2023-01-31T01:31:45.266Z,6.43
2023-01-31T01:34:15.913Z,6.63
2023-01-31T01:36:47.999Z,8.63
2023-01-31T01:39:16.692Z,8.38
2023-01-31T01:41:45.828Z,7.90
2023-01-31T01:44:46.917Z,8.00
2023-01-31T01:47:24.764Z,5.82
2023-01-31T01:49:56.593Z,5.63
2023-01-31T01:52:28.961Z,2.42
2023-01-31T01:55:00.859Z,6.35
2023-01-31T01:57:34.191Z,8.07
2023-01-31T02:00:11.074Z,5.38
2023-01-31T02:02:39.382Z,6.18
2023-01-31T02:05:09.745Z,5.68
2023-01-31T02:07:39.622Z,6.78
2023-01-31T02:10:13.620Z,5.85
2023-01-31T02:12:42.285Z,6.75
2023-01-31T02:15:11.559Z,3.75
2023-01-31T02:17:40.231Z,1.83
2023-01-31T02:20:31.848Z,9.15
2023-01-31T02:23:26.276Z,4.80
2023-01-31T02:26:29.343Z,7.95
2023-01-31T02:29:26.605Z,11.10
2023-01-31T02:32:32.115Z,3.33
2023-01-31T02:35:08.204Z,4.13
2023-01-31T02:37:44.245Z,11.52
2023-01-31T02:40:21.743Z,4.75
2023-01-31T02:42:56.432Z,4.45
2023-01-31T02:45:35.460Z,7.45
2023-01-31T02:48:13.091Z,3.15
2023-01-31T02:50:49.203Z,2.08
2023-01-31T02:53:23.687Z,4.25
2023-01-31T02:56:14.615Z,4.47
2023-01-31T02:58:48.940Z,1.33
2023-01-31T03:01:23.332Z,0.93
2023-01-31T03:03:52.881Z,2.13
2023-01-31T03:06:54.774Z,2.40
2023-01-31T03:09:31.814Z,7.75
2023-01-31T03:12:05.975Z,1.25
2023-01-31T03:14:40.358Z,1.23
2023-01-31T03:17:33.155Z,1.75
2023-01-31T03:20:08.008Z,2.00
2023-01-31T03:22:41.000Z,1.08
2023-01-31T03:25:13.029Z,2.20
2023-01-31T03:27:46.387Z,1.33
2023-01-31T03:30:18.629Z,3.75
2023-01-31T03:32:52.584Z,1.73
2023-01-31T03:35:23.298Z,3.30
2023-01-31T03:37:58.417Z,1.83
2023-01-31T03:40:31.885Z,2.15
2023-01-31T03:43:06.648Z,1.15
2023-01-31T03:45:39.861Z,1.05
2023-01-31T03:48:14.417Z,3.22
2023-01-31T03:50:45.651Z,0.80
2023-01-31T03:53:19.480Z,5.45
2023-01-31T03:55:53.529Z,0.90
2023-01-31T03:58:27.920Z,1.15
2023-01-31T04:00:59.214Z,2.17
2023-01-31T04:03:33.168Z,2.00
2023-01-31T04:06:01.317Z,3.08
2023-01-31T04:08:32.556Z,1.48
2023-01-31T04:11:02.200Z,0.50
2023-01-31T04:13:30.398Z,2.00
2023-01-31T04:15:58.585Z,2.08
2023-01-31T04:18:26.809Z,0.45
2023-01-31T04:20:55.140Z,1.98
2023-01-31T04:23:25.119Z,0.35
2023-01-31T04:25:56.130Z,7.95
2023-01-31T04:28:24.609Z,7.95
2023-01-31T04:30:55.438Z,18.30
2023-01-31T04:33:23.899Z,24.42
2023-01-31T04:35:52.992Z,17.23
2023-01-31T04:38:21.311Z,20.38
2023-01-31T04:40:49.666Z,18.17
2023-01-31T04:43:19.113Z,27.55
2023-01-31T04:45:47.436Z,26.90
2023-01-31T04:48:15.528Z,30.17
2023-01-31T04:50:43.616Z,30.85
2023-01-31T04:53:12.064Z,38.67
2023-01-31T04:55:40.310Z,30.35
2023-01-31T04:58:08.793Z,34.85
2023-01-31T05:00:38.428Z,38.88
2023-01-31T05:03:07.372Z,37.28
2023-01-31T05:05:38.764Z,36.53
2023-01-31T05:08:07.763Z,22.30
2023-01-31T05:10:37.308Z,39.95
2023-01-31T05:13:06.005Z,28.17
2023-01-31T05:15:36.380Z,25.02
2023-01-31T05:18:06.693Z,34.80
2023-01-31T05:20:39.839Z,34.75
2023-01-31T05:23:10.980Z,25.38
2023-01-31T05:25:39.247Z,24.95
2023-01-31T05:28:07.408Z,34.60
2023-01-31T05:30:38.595Z,32.17
2023-01-31T05:33:08.373Z,27.02
2023-01-31T05:35:36.461Z,31.40
2023-01-31T05:38:04.675Z,28.42
2023-01-31T05:40:32.908Z,34.33
2023-01-31T05:43:02.026Z,31.13
2023-01-31T05:45:31.341Z,33.35
2023-01-31T05:48:00.259Z,41.45
2023-01-31T05:50:29.819Z,27.23
2023-01-31T05:53:01.011Z,31.98
2023-01-31T05:55:29.232Z,35.38
2023-01-31T05:57:57.967Z,29.42
2023-01-31T06:00:27.262Z,30.77
2023-01-31T06:02:59.699Z,42.67
2023-01-31T06:05:29.590Z,39.60
2023-01-31T06:07:57.734Z,32.65
2023-01-31T06:10:25.873Z,36.78
2023-01-31T06:12:54.135Z,29.58
2023-01-31T06:15:22.713Z,34.90
2023-01-31T06:17:51.149Z,44.15
2023-01-31T06:20:19.648Z,30.50
2023-01-31T06:22:49.276Z,36.05
2023-01-31T06:25:17.596Z,30.65
2023-01-31T06:27:45.895Z,51.55
2023-01-31T06:30:14.900Z,30.77
2023-01-31T06:32:42.993Z,34.20
2023-01-31T06:35:11.532Z,32.97
2023-01-31T06:37:39.684Z,38.58
2023-01-31T06:40:10.747Z,33.13
2023-01-31T06:42:38.962Z,41.85
2023-01-31T06:45:07.909Z,36.72
2023-01-31T06:47:36.229Z,38.25
2023-01-31T06:50:04.537Z,25.60
2023-01-31T06:52:32.599Z,33.50
2023-01-31T06:55:00.698Z,33.13
2023-01-31T06:57:30.424Z,28.05
2023-01-31T06:59:58.708Z,33.42
2023-01-31T07:02:27.121Z,29.55
2023-01-31T07:04:55.559Z,47.83
2023-01-31T07:07:23.713Z,39.08
2023-01-31T07:09:52.337Z,34.88
2023-01-31T07:12:20.591Z,29.92
2023-01-31T07:14:50.111Z,38.08
2023-01-31T07:17:18.186Z,42.17
2023-01-31T07:19:46.272Z,30.13
2023-01-31T07:22:14.437Z,33.72
2023-01-31T07:24:42.672Z,29.45
2023-01-31T07:27:13.344Z,28.58
2023-01-31T07:29:41.540Z,30.83
2023-01-31T07:32:11.441Z,34.53
2023-01-31T07:34:39.567Z,33.65
2023-01-31T07:37:07.703Z,33.03
2023-01-31T07:39:35.858Z,36.45
2023-01-31T07:42:03.991Z,32.15
2023-01-31T07:44:32.315Z,32.42
2023-01-31T07:47:00.786Z,38.40
2023-01-31T07:49:30.198Z,26.52
2023-01-31T07:51:58.311Z,30.00
2023-01-31T07:54:26.356Z,29.45
2023-01-31T07:56:54.537Z,28.10
2023-01-31T07:59:22.707Z,31.25
2023-01-31T08:02:08.529Z,25.30
2023-01-31T08:04:38.001Z,39.28
2023-01-31T08:07:07.121Z,35.92
2023-01-31T08:09:35.434Z,27.27
2023-01-31T08:12:03.598Z,28.65
2023-01-31T08:14:33.056Z,37.47
2023-01-31T08:17:01.271Z,30.33
2023-01-31T08:19:29.556Z,28.35
2023-01-31T08:21:59.205Z,40.13
2023-01-31T08:24:27.380Z,36.03
2023-01-31T08:26:55.868Z,25.73
2023-01-31T08:29:24.651Z,27.45
2023-01-31T08:31:53.543Z,35.70
2023-01-31T08:34:23.509Z,31.50
2023-01-31T08:36:51.784Z,25.20
2023-01-31T08:39:21.443Z,45.47
2023-01-31T08:41:49.636Z,34.08
2023-01-31T08:44:17.885Z,20.98
2023-01-31T08:46:46.918Z,25.58
2023-01-31T08:49:15.285Z,26.95
2023-01-31T08:51:43.402Z,42.95
2023-01-31T08:54:12.996Z,39.50
2023-01-31T08:56:42.508Z,18.45
2023-01-31T08:59:11.900Z,26.77
2023-01-31T09:01:42.507Z,35.90
2023-01-31T09:04:10.687Z,33.47
2023-01-31T09:06:38.869Z,28.88
2023-01-31T09:09:07.030Z,32.78
2023-01-31T09:11:36.150Z,37.53
2023-01-31T09:14:05.638Z,33.67
2023-01-31T09:16:33.949Z,37.83
2023-01-31T09:19:02.083Z,27.48
2023-01-31T09:21:30.382Z,31.05
2023-01-31T09:23:59.997Z,25.85
2023-01-31T09:26:28.217Z,20.83
2023-01-31T09:28:58.075Z,33.67
2023-01-31T09:31:27.790Z,34.70
2023-01-31T09:33:56.373Z,21.38
2023-01-31T09:36:25.988Z,23.13
2023-01-31T09:38:59.720Z,29.50
2023-01-31T09:41:34.423Z,24.70
2023-01-31T09:44:10.216Z,27.63
2023-01-31T09:46:43.390Z,42.65
2023-01-31T09:49:19.750Z,37.42
2023-01-31T09:51:58.143Z,30.30
2023-01-31T09:54:33.315Z,22.63
2023-01-31T09:57:09.906Z,21.88
2023-01-31T09:59:46.137Z,29.25
2023-01-31T10:02:48.912Z,21.58
2023-01-31T10:05:30.843Z,27.58
2023-01-31T10:08:08.767Z,27.67
2023-01-31T10:10:42.731Z,22.92
2023-01-31T10:13:17.496Z,21.00
2023-01-31T10:15:49.455Z,23.08
2023-01-31T10:18:25.987Z,25.33
2023-01-31T10:20:57.970Z,32.55
2023-01-31T10:23:31.477Z,33.40
2023-01-31T10:26:02.750Z,20.83
2023-01-31T10:28:37.806Z,28.08
2023-01-31T10:31:13.541Z,30.05
2023-01-31T10:33:52.071Z,28.55
2023-01-31T10:36:28.039Z,35.05
2023-01-31T10:39:04.062Z,25.92
2023-01-31T10:41:42.115Z,27.35
2023-01-31T10:44:21.684Z,24.23
2023-01-31T10:46:50.308Z,26.95
2023-01-31T10:49:25.134Z,34.13
2023-01-31T10:52:09.165Z,26.65
2023-01-31T10:54:49.892Z,27.75
2023-01-31T10:57:18.671Z,36.97
2023-01-31T10:59:48.969Z,21.38
2023-01-31T11:02:22.400Z,33.33
2023-01-31T11:04:54.028Z,38.08
2023-01-31T11:09:54.159Z,29.88
2023-01-31T11:12:23.333Z,34.28
2023-01-31T11:15:08.020Z,25.70
2023-01-31T11:17:38.633Z,34.42
2023-01-31T11:20:23.335Z,33.07
2023-01-31T11:22:53.370Z,34.22
2023-01-31T11:25:23.762Z,26.65
2023-01-31T11:27:55.619Z,26.50
2023-01-31T11:30:28.963Z,28.70
2023-01-31T11:32:58.275Z,29.50
2023-01-31T11:35:30.084Z,24.77
2023-01-31T11:38:00.158Z,25.42
2023-01-31T11:40:31.953Z,25.80
2023-01-31T11:43:01.986Z,27.35
2023-01-31T11:45:33.165Z,23.92
2023-01-31T11:48:12.237Z,38.60
2023-01-31T11:50:44.667Z,23.10
2023-01-31T11:53:20.060Z,32.88
2023-01-31T11:55:50.399Z,28.35
2023-01-31T11:58:22.386Z,28.02
2023-01-31T12:00:57.239Z,23.00
2023-01-31T12:03:26.218Z,28.70
2023-01-31T12:06:03.877Z,22.08
2023-01-31T12:08:35.948Z,24.23
2023-01-31T12:11:06.589Z,32.60
2023-01-31T12:13:48.074Z,26.03
2023-01-31T12:16:20.572Z,37.35
2023-01-31T12:19:01.354Z,27.25
2023-01-31T12:21:53.691Z,31.30
2023-01-31T12:24:35.705Z,22.30
2023-01-31T12:27:12.794Z,29.38
2023-01-31T12:30:09.352Z,37.58
2023-01-31T12:32:52.482Z,24.10
2023-01-31T12:35:33.735Z,27.88
2023-01-31T12:38:19.538Z,30.02
2023-01-31T12:40:55.662Z,23.17
2023-01-31T12:43:44.320Z,21.67
2023-01-31T12:46:19.778Z,23.35
2023-01-31T12:49:05.475Z,24.00
2023-01-31T12:51:46.721Z,33.67
2023-01-31T12:54:35.872Z,21.77
2023-01-31T12:57:15.317Z,23.83
2023-01-31T12:59:52.022Z,24.95
2023-01-31T13:02:42.474Z,19.65
2023-01-31T13:05:22.803Z,22.40
2023-01-31T13:07:56.572Z,28.65
2023-01-31T13:10:36.852Z,26.27
2023-01-31T13:13:07.645Z,22.48
2023-01-31T13:15:42.527Z,23.83
2023-01-31T13:18:13.899Z,27.23
2023-01-31T13:20:48.123Z,22.98
2023-01-31T13:23:23.559Z,30.98
2023-01-31T13:25:58.285Z,30.48
2023-01-31T13:28:30.316Z,26.08
2023-01-31T13:31:00.685Z,20.33
2023-01-31T13:33:34.024Z,24.98
2023-01-31T13:36:11.637Z,24.33
2023-01-31T13:38:43.440Z,20.92
2023-01-31T13:41:20.685Z,19.50
2023-01-31T13:43:48.845Z,24.38
2023-01-31T13:46:24.628Z,20.25
2023-01-31T13:48:58.491Z,16.05
2023-01-31T13:51:32.201Z,23.17
2023-01-31T13:54:07.093Z,16.92
2023-01-31T13:56:38.996Z,24.42
2023-01-31T13:59:10.067Z,14.70
2023-01-31T14:01:47.232Z,23.67
2023-01-31T14:04:40.661Z,23.95
2023-01-31T14:07:24.539Z,17.30
2023-01-31T14:10:28.695Z,22.55
2023-01-31T14:13:27.878Z,20.90
2023-01-31T14:15:57.667Z,19.15
2023-01-31T14:18:43.216Z,15.95
2023-01-31T14:21:45.406Z,15.40
2023-01-31T14:24:22.197Z,16.33
2023-01-31T14:26:55.409Z,20.05
2023-01-31T14:29:27.741Z,17.10
2023-01-31T14:31:58.101Z,21.83
2023-01-31T14:34:29.807Z,21.42
2023-01-31T14:37:15.276Z,18.75
2023-01-31T14:40:03.714Z,19.30
2023-01-31T14:42:58.783Z,22.80
2023-01-31T14:45:52.678Z,19.15
2023-01-31T14:48:34.924Z,18.17
2023-01-31T14:51:13.302Z,18.83
2023-01-31T14:54:14.208Z,16.17
2023-01-31T14:56:55.151Z,24.92
2023-01-31T14:59:31.128Z,30.17
2023-01-31T15:02:01.953Z,13.68
2023-01-31T15:04:30.548Z,17.52
2023-01-31T15:06:59.115Z,21.88
2023-01-31T15:09:46.689Z,14.13
2023-01-31T15:12:50.621Z,16.00
2023-01-31T15:15:27.672Z,28.02
2023-01-31T15:17:57.987Z,27.20
2023-01-31T15:20:34.831Z,16.63
2023-01-31T15:23:09.257Z,28.73
2023-01-31T15:25:44.883Z,19.05
2023-01-31T15:28:17.803Z,16.95
2023-01-31T15:30:46.693Z,30.10
2023-01-31T15:33:22.441Z,21.10
2023-01-31T15:35:55.366Z,16.90
2023-01-31T15:38:30.956Z,20.23
2023-01-31T15:41:20.211Z,17.77
2023-01-31T15:43:49.523Z,22.05
2023-01-31T15:46:24.563Z,28.13
2023-01-31T15:48:54.473Z,19.33
2023-01-31T15:51:23.077Z,21.45
2023-01-31T15:54:02.820Z,26.08
2023-01-31T15:56:31.488Z,26.10
2023-01-31T15:59:00.042Z,18.15
2023-01-31T16:01:31.647Z,19.38
2023-01-31T16:04:01.818Z,28.25
2023-01-31T16:06:34.293Z,17.35
2023-01-31T16:09:04.185Z,19.33
2023-01-31T16:11:34.501Z,28.30
2023-01-31T16:14:05.360Z,16.42
2023-01-31T16:16:36.575Z,19.25
2023-01-31T16:19:07.352Z,24.92
2023-01-31T16:21:39.722Z,17.95
2023-01-31T16:24:16.042Z,12.00
2023-01-31T16:26:58.664Z,22.70
2023-01-31T16:29:40.514Z,18.70
2023-01-31T16:32:18.256Z,14.60
2023-01-31T16:34:54.964Z,21.55
2023-01-31T16:37:32.620Z,20.40
2023-01-31T16:40:05.699Z,22.65
2023-01-31T16:42:35.452Z,19.35
2023-01-31T16:45:04.259Z,17.67
2023-01-31T16:47:34.843Z,17.08
2023-01-31T16:50:43.036Z,20.20
2023-01-31T16:53:24.623Z,21.25
2023-01-31T16:56:18.553Z,18.23
2023-01-31T16:58:53.571Z,15.10
2023-01-31T17:01:25.159Z,20.75
2023-01-31T17:04:18.454Z,16.45
2023-01-31T17:06:51.482Z,20.23
2023-01-31T17:09:22.660Z,20.13
2023-01-31T17:11:50.922Z,21.30
2023-01-31T17:14:18.994Z,25.60
2023-01-31T17:16:47.380Z,17.38
2023-01-31T17:19:16.188Z,25.05
2023-01-31T17:21:47.530Z,26.63
2023-01-31T17:24:18.198Z,20.45
2023-01-31T17:26:46.564Z,19.50
2023-01-31T17:29:14.676Z,23.77
2023-01-31T17:31:43.223Z,30.33
2023-01-31T17:34:14.741Z,16.95
2023-01-31T17:39:12.320Z,19.25
2023-01-31T17:41:41.430Z,41.55
2023-01-31T17:44:14.164Z,28.83
2023-01-31T17:46:43.140Z,21.63
2023-01-31T17:49:11.510Z,18.30
2023-01-31T17:51:40.009Z,23.98
2023-01-31T17:54:08.739Z,19.90
2023-01-31T17:56:38.515Z,18.75
2023-01-31T17:59:08.382Z,22.65
2023-01-31T18:01:36.700Z,26.17
2023-01-31T18:04:05.601Z,25.85
2023-01-31T18:06:33.742Z,17.92
2023-01-31T18:09:04.011Z,24.15
2023-01-31T18:11:32.207Z,21.92
2023-01-31T18:14:03.952Z,24.27
2023-01-31T18:16:32.395Z,29.70
2023-01-31T18:19:00.627Z,22.15
2023-01-31T18:21:28.882Z,29.65
2023-01-31T18:23:58.964Z,32.45
2023-01-31T18:26:27.378Z,24.50
2023-01-31T18:28:57.570Z,18.13
2023-01-31T18:31:27.385Z,23.90
2023-01-31T18:33:55.869Z,24.10
2023-01-31T18:36:24.010Z,25.75
2023-01-31T18:38:52.537Z,36.20
2023-01-31T18:41:22.391Z,31.00
2023-01-31T18:43:50.933Z,25.15
2023-01-31T18:46:19.415Z,23.20
2023-01-31T18:48:49.356Z,29.58
2023-01-31T18:51:18.283Z,32.88
2023-01-31T18:53:47.723Z,31.63
2023-01-31T18:56:17.759Z,19.35
2023-01-31T18:58:47.316Z,24.95
2023-01-31T19:01:17.421Z,29.77
2023-01-31T19:03:46.995Z,27.05
2023-01-31T19:06:18.191Z,27.15
2023-01-31T19:08:48.978Z,25.95
2023-01-31T19:11:18.168Z,25.80
2023-01-31T19:13:46.991Z,23.40
2023-01-31T19:16:16.938Z,25.25
2023-01-31T19:18:45.416Z,26.48
2023-01-31T19:21:18.961Z,26.38
2023-01-31T19:23:48.390Z,23.52
2023-01-31T19:26:17.434Z,22.08
2023-01-31T19:28:47.181Z,26.08
2023-01-31T19:31:17.036Z,25.05
2023-01-31T19:33:49.699Z,26.60
2023-01-31T19:36:20.713Z,18.52
2023-01-31T19:38:49.453Z,29.60
2023-01-31T19:41:21.056Z,24.20
2023-01-31T19:46:18.541Z,24.92
2023-01-31T19:48:47.211Z,15.70
2023-01-31T19:51:17.143Z,24.92
2023-01-31T19:53:47.530Z,28.10
2023-01-31T19:56:16.703Z,26.85
2023-01-31T19:58:45.557Z,25.52
2023-01-31T20:01:16.458Z,27.35
2023-01-31T20:03:45.096Z,27.42
2023-01-31T20:06:14.940Z,29.02
2023-01-31T20:08:43.628Z,25.00
2023-01-31T20:11:13.262Z,24.38
2023-01-31T20:13:42.146Z,25.90
2023-01-31T20:16:12.389Z,22.88
2023-01-31T20:18:43.785Z,17.88
2023-01-31T20:21:15.918Z,19.60
2023-01-31T20:23:45.531Z,25.00
2023-01-31T20:26:16.028Z,24.67
2023-01-31T20:28:44.628Z,25.88
2023-01-31T20:31:15.403Z,24.10
2023-01-31T20:33:44.031Z,27.25
2023-01-31T20:36:13.163Z,28.30
2023-01-31T20:38:41.603Z,21.25
2023-01-31T20:41:10.260Z,27.63
2023-01-31T20:43:39.890Z,16.65
2023-01-31T20:46:09.455Z,22.65
2023-01-31T20:48:37.996Z,25.60
2023-01-31T20:51:07.322Z,27.10
2023-01-31T20:53:35.895Z,33.47
2023-01-31T20:56:05.822Z,21.95
2023-01-31T20:58:35.956Z,24.35
2023-01-31T21:01:06.910Z,27.63
2023-01-31T21:03:35.877Z,17.88
2023-01-31T21:06:05.176Z,19.83
2023-01-31T21:08:35.525Z,26.65
2023-01-31T21:11:07.588Z,19.13
2023-01-31T21:13:35.987Z,22.48
2023-01-31T21:16:07.798Z,26.25
2023-01-31T21:18:38.193Z,29.67
2023-01-31T21:21:08.957Z,17.17
2023-01-31T21:23:38.566Z,22.92
2023-01-31T21:26:08.661Z,21.90
2023-01-31T21:28:37.657Z,27.92
2023-01-31T21:31:12.614Z,30.33
2023-01-31T21:33:41.324Z,29.75
2023-01-31T21:36:11.008Z,26.92
2023-01-31T21:38:39.529Z,29.05
2023-01-31T21:41:25.862Z,26.65
2023-01-31T21:43:54.487Z,30.50
2023-01-31T21:46:24.984Z,24.35
2023-01-31T21:48:53.525Z,37.97
2023-01-31T21:51:25.382Z,23.33
2023-01-31T21:53:54.180Z,27.77
2023-01-31T21:56:23.935Z,31.30
2023-01-31T21:58:54.904Z,20.02
2023-01-31T22:01:26.414Z,25.20
2023-01-31T22:06:27.193Z,22.80
2023-01-31T22:08:58.085Z,25.02
2023-01-31T22:11:28.603Z,30.17
2023-01-31T22:13:56.673Z,22.57
2023-01-31T22:16:26.397Z,22.52
2023-01-31T22:18:54.841Z,26.05
2023-01-31T22:21:25.911Z,23.58
2023-01-31T22:23:55.534Z,21.52
2023-01-31T22:26:25.628Z,29.55
2023-01-31T22:28:57.474Z,25.17
2023-01-31T22:31:27.496Z,27.95
2023-01-31T22:33:56.186Z,31.58
2023-01-31T22:36:25.410Z,24.50
2023-01-31T22:38:54.705Z,40.00
2023-01-31T22:41:23.608Z,31.15
2023-01-31T22:43:56.042Z,32.60
2023-01-31T22:46:27.441Z,27.42
2023-01-31T22:51:26.991Z,20.92
2023-01-31T22:53:55.718Z,28.35
2023-01-31T22:56:25.804Z,32.95
2023-01-31T22:58:56.833Z,23.13
2023-01-31T23:01:28.337Z,14.93
2023-01-31T23:06:26.436Z,26.88
2023-01-31T23:08:58.305Z,22.40
2023-01-31T23:11:34.324Z,29.38
2023-01-31T23:14:03.280Z,26.30
2023-01-31T23:16:46.662Z,25.55
2023-01-31T23:19:16.566Z,16.63
2023-01-31T23:21:45.091Z,22.90
2023-01-31T23:24:14.596Z,29.17
2023-01-31T23:26:43.156Z,21.08
2023-01-31T23:29:11.547Z,22.10
2023-01-31T23:31:41.509Z,27.67
2023-01-31T23:34:09.785Z,20.60
2023-01-31T23:36:38.579Z,22.40
2023-01-31T23:39:07.070Z,27.33
2023-01-31T23:41:35.179Z,20.58
2023-01-31T23:44:03.706Z,18.95
2023-01-31T23:46:31.909Z,27.10
2023-01-31T23:49:01.519Z,23.13
2023-01-31T23:51:31.476Z,24.75
2023-01-31T23:53:59.801Z,23.15
2023-01-31T23:56:27.871Z,27.55
2023-01-31T23:58:56.071Z,29.83
